Time;durP1;ratioP1;P1;durP2;ratioP2;P2;SDS_P1;SDS_P2;PMS_P1;PMS_P2;Temp;Humidity;BMP_temperature;BMP_pressure;BME280_temperature;BME280_humidity;BME280_pressure;Samples;Min_cycle;Max_cycle;Signal;HPM_P1;HPM_P2
2022/09/12 00:00:00;;;;;;;3.10;1.35;;;487.10;2380.80;;;;;;5081030;28;20492;-79
2022/09/12 00:02:26;;;;;;;5.50;1.73;;;487.10;2380.80;;;;;;5088760;28;20024;-79
2022/09/12 00:04:52;;;;;;;2.58;1.20;;;487.10;2380.80;;;;;;5079282;28;20012;-80
2022/09/12 00:07:18;;;;;;;2.70;1.30;;;487.10;2380.80;;;;;;5077641;28;20099;-79
2022/09/12 00:09:43;;;;;;;2.72;1.15;;;487.00;2380.80;;;;;;5080514;28;20047;-79
2022/09/12 00:12:09;;;;;;;2.40;1.17;;;487.00;2380.80;;;;;;5075090;28;20111;-79
2022/09/12 00:14:35;;;;;;;4.60;1.40;;;487.00;2380.80;;;;;;5080437;28;20115;-79
2022/09/12 00:17:01;;;;;;;4.72;1.40;;;487.00;2380.80;;;;;;5083213;28;20079;-80
2022/09/12 00:19:28;;;;;;;2.83;1.17;;;487.00;2380.80;;;;;;5078884;28;20032;-79
2022/09/12 00:21:54;;;;;;;4.78;1.60;;;487.00;2380.80;;;;;;5079383;28;20476;-79
2022/09/12 00:24:21;;;;;;;5.30;1.30;;;486.90;2380.80;;;;;;5081389;28;20535;-79
2022/09/12 00:26:47;;;;;;;2.80;1.10;;;486.90;2380.80;;;;;;5074871;28;20016;-79
2022/09/12 00:29:22;;;;;;;1.63;1.05;;;486.90;2380.80;;;;;;5076832;28;20049;-80
2022/09/12 00:31:47;;;;;;;2.80;1.30;;;486.80;2380.80;;;;;;5080053;28;20024;-80
2022/09/12 00:34:13;;;;;;;2.35;1.40;;;486.80;2380.80;;;;;;5078586;28;20070;-79
2022/09/12 00:36:40;;;;;;;1.52;1.10;;;486.70;2380.80;;;;;;5082954;28;20063;-79
2022/09/12 00:39:06;;;;;;;4.65;1.33;;;486.70;2380.80;;;;;;5082687;28;20481;-79
2022/09/12 00:41:37;;;;;;;3.53;1.13;;;486.70;2380.80;;;;;;5082452;28;20020;-79
2022/09/12 00:44:23;;;;;;;3.20;1.38;;;486.60;2380.80;;;;;;5079556;28;20051;-80
2022/09/12 00:46:54;;;;;;;4.93;1.70;;;486.50;2380.80;;;;;;5082314;28;20073;-79
2022/09/12 00:49:22;;;;;;;2.67;1.45;;;486.50;2380.80;;;;;;5075912;28;20482;-79
2022/09/12 00:52:08;;;;;;;7.90;1.77;;;486.50;2380.80;;;;;;5081171;28;20082;-79
2022/09/12 00:54:40;;;;;;;5.85;1.42;;;486.50;2380.80;;;;;;5097101;28;20022;-79
2022/09/12 00:57:08;;;;;;;6.25;1.90;;;486.40;2380.80;;;;;;5079961;28;20037;-79
2022/09/12 00:59:52;;;;;;;2.72;1.40;;;461.70;2380.80;;;;;;5075838;28;20058;-79
2022/09/12 01:02:20;;;;;;;6.97;1.58;;;461.70;2380.80;;;;;;5078966;28;20017;-79
2022/09/12 01:04:46;;;;;;;2.50;1.40;;;461.50;2380.80;;;;;;5101971;28;20392;-79
2022/09/12 01:07:14;;;;;;;3.17;1.25;;;461.50;2380.80;;;;;;5055374;28;20032;-79
2022/09/12 01:09:42;;;;;;;6.03;1.50;;;461.40;2380.80;;;;;;5077243;28;20012;-79
2022/09/12 01:12:09;;;;;;;3.38;1.48;;;461.40;2380.80;;;;;;5085112;28;20108;-79
2022/09/12 01:14:36;;;;;;;3.92;1.50;;;461.40;2380.80;;;;;;5079481;28;20078;-80
2022/09/12 01:17:02;;;;;;;4.97;1.50;;;461.40;2380.80;;;;;;5077230;28;20075;-79
2022/09/12 01:19:45;;;;;;;5.00;1.50;;;461.40;2380.80;;;;;;5080292;28;20025;-79
2022/09/12 01:22:49;;;;;;;2.80;1.63;;;461.20;2380.80;;;;;;5084816;28;20024;-79
2022/09/12 01:25:20;;;;;;;5.35;1.88;;;461.20;2380.80;;;;;;5076360;28;20200;-79
2022/09/12 01:28:07;;;;;;;4.65;2.13;;;461.20;2380.80;;;;;;5079924;28;20017;-79
2022/09/12 01:30:54;;;;;;;4.72;2.17;;;461.20;2380.80;;;;;;5072056;28;20024;-79
2022/09/12 01:33:47;;;;;;;3.05;1.98;;;461.20;2380.80;;;;;;5071758;28;20017;-78
2022/09/12 01:36:34;;;;;;;5.55;1.55;;;461.20;2380.80;;;;;;5069122;28;20497;-79
2022/09/12 01:39:05;;;;;;;5.50;1.15;;;461.20;2380.80;;;;;;5094265;28;20035;-80
2022/09/12 01:41:53;;;;;;;2.50;1.40;;;461.00;2380.80;;;;;;5075128;28;20019;-79
2022/09/12 01:44:48;;;;;;;4.70;1.60;;;461.10;2380.80;;;;;;5074282;28;20107;-79
2022/09/12 01:47:41;;;;;;;2.17;1.25;;;461.00;2380.80;;;;;;5078006;28;20486;-79
2022/09/12 01:50:10;;;;;;;2.15;1.52;;;461.10;2380.80;;;;;;5024922;28;20034;-79
2022/09/12 01:52:49;;;;;;;5.97;1.90;;;461.20;2380.80;;;;;;5043211;28;20228;-79
2022/09/12 01:55:30;;;;;;;3.30;1.83;;;461.20;2380.80;;;;;;5038590;28;20116;-79
2022/09/12 01:58:30;;;;;;;5.60;1.80;;;461.20;2380.80;;;;;;5030456;28;20047;-79
2022/09/12 02:01:08;;;;;;;2.78;1.30;;;461.10;2380.80;;;;;;5015697;28;20395;-79
2022/09/12 02:04:10;;;;;;;5.75;1.60;;;461.10;2380.80;;;;;;5046766;28;20094;-79
2022/09/12 02:06:55;;;;;;;6.18;1.52;;;461.10;2380.80;;;;;;5018586;28;20021;-79
2022/09/12 02:09:41;;;;;;;2.42;1.27;;;461.00;2380.80;;;;;;5034763;28;20033;-79
2022/09/12 02:12:11;;;;;;;3.13;1.42;;;460.90;2380.80;;;;;;4958133;28;20027;-79
2022/09/12 02:14:41;;;;;;;3.25;1.67;;;460.90;2380.80;;;;;;4959603;28;20165;-79
2022/09/12 02:17:13;;;;;;;5.05;1.65;;;460.90;2380.80;;;;;;4951185;28;20122;-79
2022/09/12 02:19:55;;;;;;;2.92;1.50;;;461.00;2380.80;;;;;;4953688;28;20047;-79
2022/09/12 02:22:25;;;;;;;3.20;1.40;;;460.90;2380.80;;;;;;4956041;28;20054;-79
2022/09/12 02:24:56;;;;;;;2.33;1.40;;;460.90;2380.80;;;;;;4943677;28;20556;-79
2022/09/12 02:27:48;;;;;;;3.47;1.70;;;460.90;2380.80;;;;;;4965804;28;20073;-79
2022/09/12 02:30:15;;;;;;;3.30;1.83;;;460.90;2380.80;;;;;;4987018;28;20027;-79
2022/09/12 02:32:59;;;;;;;2.60;1.70;;;460.80;2380.80;;;;;;4984024;28;20065;-79
2022/09/12 02:35:38;;;;;;;5.63;1.70;;;460.90;2380.80;;;;;;4964095;28;20034;-79
2022/09/12 02:38:27;;;;;;;3.00;1.70;;;460.90;2380.80;;;;;;4998004;28;20031;-79
2022/09/12 02:40:53;;;;;;;3.67;1.55;;;460.80;2380.80;;;;;;4982001;28;20022;-79
2022/09/12 02:43:19;;;;;;;5.05;2.08;;;460.80;2380.80;;;;;;4995011;28;20503;-79
2022/09/12 02:45:45;;;;;;;2.55;1.50;;;460.90;2380.80;;;;;;4975866;28;20122;-79
2022/09/12 02:48:18;;;;;;;5.10;1.30;;;460.90;2380.80;;;;;;5000196;28;20116;-79
2022/09/12 02:50:44;;;;;;;3.22;1.48;;;460.80;2380.80;;;;;;5078653;28;20032;-79
2022/09/12 02:53:10;;;;;;;3.97;1.23;;;436.10;2355.20;;;;;;5077836;28;20052;-79
2022/09/12 02:55:39;;;;;;;1.67;1.08;;;436.10;2355.20;;;;;;5101465;28;20047;-79
2022/09/12 02:58:09;;;;;;;1.83;1.35;;;436.10;2355.20;;;;;;5078613;28;20097;-79
2022/09/12 03:00:48;;;;;;;2.65;1.40;;;436.10;2355.20;;;;;;5079998;28;20024;-79
2022/09/12 03:03:17;;;;;;;2.78;1.40;;;436.10;2355.20;;;;;;5074097;28;20547;-79
2022/09/12 03:06:04;;;;;;;2.22;1.10;;;436.10;2355.20;;;;;;5072743;28;20017;-79
2022/09/12 03:09:01;;;;;;;2.70;1.42;;;436.10;2355.20;;;;;;5076551;28;20025;-79
2022/09/12 03:11:42;;;;;;;2.15;1.20;;;436.10;2355.20;;;;;;5069728;28;20115;-79
2022/09/12 03:14:25;;;;;;;3.63;1.50;;;436.00;2355.20;;;;;;5077261;28;20020;-79
2022/09/12 03:17:00;;;;;;;3.08;1.10;;;435.90;2355.20;;;;;;5076788;28;20032;-79
2022/09/12 03:19:58;;;;;;;2.63;1.33;;;435.90;2355.20;;;;;;5081875;28;20154;-79
2022/09/12 03:22:39;;;;;;;2.90;1.10;;;435.90;2355.20;;;;;;5095032;28;20378;-79
2022/09/12 03:25:19;;;;;;;2.45;1.30;;;435.90;2355.20;;;;;;5081756;28;20035;-79
2022/09/12 03:28:13;;;;;;;2.13;1.05;;;435.80;2355.20;;;;;;5090272;28;20398;-79
2022/09/12 03:30:41;;;;;;;3.20;1.50;;;435.80;2355.20;;;;;;5076220;28;20042;-79
2022/09/12 03:33:10;;;;;;;3.95;1.40;;;435.80;2355.20;;;;;;5080183;28;20016;-78
2022/09/12 03:35:36;;;;;;;5.10;1.67;;;435.70;2355.20;;;;;;5076689;28;20023;-78
2022/09/12 03:38:03;;;;;;;5.93;1.52;;;435.60;2355.20;;;;;;5099066;28;20397;-79
2022/09/12 03:40:29;;;;;;;3.88;1.20;;;435.70;2355.20;;;;;;5082570;28;20501;-81
2022/09/12 03:42:55;;;;;;;2.20;1.42;;;435.60;2355.20;;;;;;5075094;28;20024;-78
2022/09/12 03:45:21;;;;;;;3.53;1.63;;;435.60;2355.20;;;;;;5101372;28;20480;-79
2022/09/12 03:47:47;;;;;;;5.60;2.20;;;435.60;2355.20;;;;;;5080703;28;20032;-79
2022/09/12 03:50:12;;;;;;;4.18;1.92;;;435.60;2355.20;;;;;;5079177;28;20377;-78
2022/09/12 03:52:38;;;;;;;3.75;1.67;;;435.60;2355.20;;;;;;5069195;28;20086;-78
2022/09/12 03:55:04;;;;;;;2.40;1.55;;;435.60;2355.20;;;;;;5082257;28;20020;-78
2022/09/12 03:57:30;;;;;;;2.17;1.58;;;435.60;2355.20;;;;;;5079081;28;20040;-78
2022/09/12 03:59:56;;;;;;;4.97;1.88;;;435.60;2355.20;;;;;;5086170;28;20424;-78
2022/09/12 04:02:21;;;;;;;2.20;1.33;;;435.60;2355.20;;;;;;5081393;28;20081;-78
2022/09/12 04:04:47;;;;;;;5.60;1.52;;;435.60;2355.20;;;;;;5076703;28;20020;-78
2022/09/12 04:07:15;;;;;;;4.90;1.50;;;435.60;2355.20;;;;;;5080596;28;20054;-78
2022/09/12 04:09:40;;;;;;;10.77;2.10;;;435.70;2355.20;;;;;;5077493;28;20020;-77
2022/09/12 04:12:06;;;;;;;3.25;1.67;;;435.60;2355.20;;;;;;5083289;28;20020;-78
2022/09/12 04:14:32;;;;;;;3.13;1.85;;;435.60;2355.20;;;;;;5097112;28;20024;-78
2022/09/12 04:16:58;;;;;;;5.55;2.20;;;435.60;2355.20;;;;;;5082780;28;20513;-75
2022/09/12 04:19:27;;;;;;;3.83;2.05;;;435.60;2355.20;;;;;;5081470;28;20044;-78
2022/09/12 04:21:52;;;;;;;5.10;1.90;;;435.60;2355.20;;;;;;5077082;28;20016;-77
2022/09/12 04:24:18;;;;;;;3.15;1.95;;;435.70;2355.20;;;;;;5074775;28;20051;-77
2022/09/12 04:26:44;;;;;;;7.47;2.40;;;435.60;2355.20;;;;;;5077060;28;20059;-78
2022/09/12 04:29:13;;;;;;;3.03;1.83;;;435.60;2355.20;;;;;;5074799;28;20016;-76
2022/09/12 04:31:40;;;;;;;18.95;2.65;;;435.60;2355.20;;;;;;5078283;28;20021;-77
2022/09/12 04:34:06;;;;;;;2.95;1.73;;;435.60;2355.20;;;;;;5088149;28;20028;-76
2022/09/12 04:36:33;;;;;;;8.07;2.42;;;435.60;2355.20;;;;;;5080412;28;20032;-77
2022/09/12 04:39:00;;;;;;;6.65;3.10;;;435.60;2355.20;;;;;;5073103;28;20066;-77
2022/09/12 04:41:34;;;;;;;6.30;2.22;;;435.60;2355.20;;;;;;5096429;28;20048;-77
2022/09/12 04:44:10;;;;;;;3.53;1.85;;;435.60;2355.20;;;;;;5073772;28;20016;-77
2022/09/12 04:46:39;;;;;;;4.90;2.08;;;435.70;2355.20;;;;;;5099366;28;20439;-77
2022/09/12 04:49:05;;;;;;;4.43;2.13;;;435.70;2355.20;;;;;;5072438;28;20466;-76
2022/09/12 04:51:34;;;;;;;4.65;2.20;;;435.70;2355.20;;;;;;5079835;28;20024;-79
2022/09/12 04:54:03;;;;;;;3.40;1.98;;;435.70;2355.20;;;;;;5074125;28;20025;-78
2022/09/12 04:56:31;;;;;;;7.93;1.92;;;435.70;2355.20;;;;;;5082297;28;20039;-78
2022/09/12 04:58:59;;;;;;;5.68;2.35;;;435.70;2355.20;;;;;;5083174;28;20037;-79
2022/09/12 05:01:26;;;;;;;5.50;1.98;;;435.80;2355.20;;;;;;5079288;28;20031;-78
2022/09/12 05:03:53;;;;;;;3.67;2.15;;;435.80;2355.20;;;;;;5081576;28;20033;-79
2022/09/12 05:06:22;;;;;;;6.35;2.58;;;435.80;2355.20;;;;;;5078372;28;20543;-79
2022/09/12 05:08:49;;;;;;;2.88;1.90;;;435.80;2355.20;;;;;;5080537;28;20012;-82
2022/09/12 05:11:17;;;;;;;3.85;2.20;;;435.80;2355.20;;;;;;5088319;28;20024;-79
2022/09/12 05:13:43;;;;;;;6.63;2.30;;;435.80;2355.20;;;;;;5081106;28;20051;-81
2022/09/12 05:16:14;;;;;;;2.90;1.98;;;435.90;2355.20;;;;;;5078617;28;20036;-79
2022/09/12 05:18:41;;;;;;;3.40;2.20;;;435.80;2355.20;;;;;;5078330;28;20044;-78
2022/09/12 05:21:10;;;;;;;4.18;2.58;;;435.90;2355.20;;;;;;5079369;28;20074;-78
2022/09/12 05:23:36;;;;;;;4.30;2.70;;;435.90;2355.20;;;;;;5079789;28;20024;-79
2022/09/12 05:26:04;;;;;;;5.45;2.50;;;435.90;2355.20;;;;;;5090686;28;20124;-79
2022/09/12 05:28:36;;;;;;;4.53;2.63;;;436.00;2355.20;;;;;;5077725;28;20044;-79
2022/09/12 05:31:07;;;;;;;7.97;2.67;;;436.10;2355.20;;;;;;5079493;28;20016;-78
2022/09/12 05:33:35;;;;;;;5.10;2.85;;;436.10;2355.20;;;;;;5081116;28;20035;-77
2022/09/12 05:36:02;;;;;;;5.63;2.60;;;436.10;2355.20;;;;;;5077638;28;20024;-77
2022/09/12 05:38:28;;;;;;;6.80;3.30;;;436.00;2355.20;;;;;;5081552;28;20458;-78
2022/09/12 05:41:12;;;;;;;9.05;3.05;;;436.00;2355.20;;;;;;5076689;28;20100;-79
2022/09/12 05:43:41;;;;;;;6.00;2.67;;;436.10;2355.20;;;;;;5088534;28;20020;-78
2022/09/12 05:46:15;;;;;;;9.82;3.33;;;436.10;2355.20;;;;;;5071289;28;20024;-78
2022/09/12 05:48:42;;;;;;;6.55;3.30;;;436.10;2355.20;;;;;;5076291;28;20508;-77
2022/09/12 05:51:11;;;;;;;5.40;3.10;;;460.80;2380.80;;;;;;5073146;28;20026;-78
2022/09/12 05:53:39;;;;;;;7.38;3.30;;;436.00;2355.20;;;;;;5077623;28;20071;-78
2022/09/12 05:56:12;;;;;;;5.45;3.15;;;460.80;2380.80;;;;;;5075912;28;20492;-79
2022/09/12 05:58:41;;;;;;;7.15;3.55;;;460.80;2380.80;;;;;;5071837;28;20032;-77
2022/09/12 06:01:10;;;;;;;9.88;3.78;;;460.90;2380.80;;;;;;5077952;28;20016;-76
2022/09/12 06:03:43;;;;;;;5.55;3.60;;;461.00;2380.80;;;;;;5090980;28;20035;-78
2022/09/12 06:06:13;;;;;;;5.15;3.22;;;460.90;2380.80;;;;;;5091868;28;20027;-79
2022/09/12 06:08:44;;;;;;;7.38;3.75;;;460.90;2380.80;;;;;;5083567;28;20104;-78
2022/09/12 06:11:13;;;;;;;5.65;3.95;;;460.90;2380.80;;;;;;5072438;28;20024;-78
2022/09/12 06:13:41;;;;;;;6.13;4.05;;;460.90;2380.80;;;;;;5075645;28;20020;-78
2022/09/12 06:16:14;;;;;;;5.43;3.90;;;461.00;2380.80;;;;;;5073108;28;20028;-77
2022/09/12 06:18:40;;;;;;;8.50;3.88;;;461.10;2380.80;;;;;;5088840;28;20055;-77
2022/09/12 06:21:10;;;;;;;5.53;3.53;;;460.90;2380.80;;;;;;5081395;28;20062;-79
2022/09/12 06:23:37;;;;;;;6.10;3.47;;;461.20;2380.80;;;;;;5077470;28;20060;-79
2022/09/12 06:26:05;;;;;;;7.07;4.10;;;461.30;2380.80;;;;;;5083822;28;20390;-79
2022/09/12 06:28:33;;;;;;;8.85;3.90;;;461.20;2380.80;;;;;;5085674;28;20020;-79
2022/09/12 06:31:13;;;;;;;6.53;4.03;;;461.20;2380.80;;;;;;5090500;28;20020;-79
2022/09/12 06:33:41;;;;;;;7.28;4.22;;;461.20;2380.80;;;;;;5092121;28;20082;-78
2022/09/12 06:36:14;;;;;;;9.32;4.68;;;461.20;2380.80;;;;;;5090404;28;20020;-78
2022/09/12 06:38:41;;;;;;;6.75;4.28;;;461.40;2380.80;;;;;;5090616;28;20040;-79
2022/09/12 06:41:10;;;;;;;6.03;3.90;;;461.40;2380.80;;;;;;5077516;28;20050;-78
2022/09/12 06:43:36;;;;;;;10.38;5.18;;;461.50;2380.80;;;;;;5079274;28;20415;-79
2022/09/12 06:46:02;;;;;;;8.98;4.28;;;461.70;2380.80;;;;;;5069772;28;20112;-79
2022/09/12 06:48:28;;;;;;;6.57;4.35;;;486.40;2380.80;;;;;;5082237;28;20059;-79
2022/09/12 06:50:55;;;;;;;7.13;4.00;;;461.70;2380.80;;;;;;5073107;28;20466;-79
2022/09/12 06:53:21;;;;;;;6.07;4.28;;;486.50;2380.80;;;;;;5079009;28;20036;-78
2022/09/12 06:55:47;;;;;;;6.97;4.63;;;486.50;2380.80;;;;;;5076785;28;20025;-79
2022/09/12 06:58:13;;;;;;;5.68;4.20;;;486.50;2380.80;;;;;;5090621;28;20081;-79
2022/09/12 07:00:38;;;;;;;8.88;4.13;;;486.50;2380.80;;;;;;5083523;28;20021;-79
2022/09/12 07:03:06;;;;;;;6.32;4.25;;;486.60;2380.80;;;;;;5079935;28;20025;-78
2022/09/12 07:05:33;;;;;;;6.10;5.10;;;486.90;2380.80;;;;;;5088027;28;20023;-79
2022/09/12 07:07:58;;;;;;;9.43;5.18;;;487.00;2380.80;;;;;;5079324;28;20090;-78
2022/09/12 07:10:24;;;;;;;11.52;4.47;;;487.00;2380.80;;;;;;5081549;28;20702;-80
2022/09/12 07:12:50;;;;;;;7.88;4.60;;;486.80;2380.80;;;;;;5078624;28;20033;-79
2022/09/12 07:15:16;;;;;;;5.53;4.10;;;487.00;2380.80;;;;;;5086263;28;20030;-79
2022/09/12 07:17:41;;;;;;;5.97;3.63;;;487.00;2380.80;;;;;;5093409;28;20051;-78
2022/09/12 07:20:07;;;;;;;5.90;3.70;;;486.90;2380.80;;;;;;5079961;28;20899;-76
2022/09/12 07:22:33;;;;;;;7.93;4.15;;;486.90;2380.80;;;;;;5080435;28;20552;-79
2022/09/12 07:24:59;;;;;;;8.13;4.65;;;487.00;2380.80;;;;;;5095429;28;20012;-81
2022/09/12 07:27:25;;;;;;;19.20;4.13;;;487.00;2380.80;;;;;;5094393;28;20035;-78
2022/09/12 07:29:51;;;;;;;7.78;4.15;;;512.00;2380.80;;;;;;5093578;28;20446;-80
2022/09/12 07:32:16;;;;;;;9.00;4.30;;;512.30;2380.80;;;;;;5082653;28;20039;-79
2022/09/12 07:34:44;;;;;;;6.28;3.92;;;512.20;2380.80;;;;;;5075635;28;20111;-77
2022/09/12 07:37:09;;;;;;;7.45;4.25;;;512.10;2380.80;;;;;;5075177;28;20048;-76
2022/09/12 07:39:36;;;;;;;6.22;3.88;;;512.00;2380.80;;;;;;5076978;28;20429;-77
2022/09/12 07:42:02;;;;;;;7.40;4.13;;;487.30;2380.80;;;;;;5081366;28;20023;-77
2022/09/12 07:44:28;;;;;;;6.82;4.40;;;487.30;2380.80;;;;;;5079666;28;20029;-77
2022/09/12 07:46:54;;;;;;;7.63;4.25;;;487.30;2380.80;;;;;;5081206;28;20470;-79
2022/09/12 07:49:19;;;;;;;7.07;3.70;;;512.10;2380.80;;;;;;5073899;28;20029;-78
2022/09/12 07:51:45;;;;;;;6.63;3.72;;;512.20;2380.80;;;;;;5072389;28;20386;-79
2022/09/12 07:54:11;;;;;;;8.15;4.13;;;512.50;2380.80;;;;;;5097788;28;20055;-77
2022/09/12 07:56:38;;;;;;;4.97;3.63;;;512.70;2380.80;;;;;;5100081;28;20021;-76
2022/09/12 07:59:04;;;;;;;6.57;4.30;;;512.60;2380.80;;;;;;5073620;28;20032;-77
2022/09/12 08:01:29;;;;;;;8.27;3.95;;;512.50;2380.80;;;;;;5097420;28;20377;-76
2022/09/12 08:03:57;;;;;;;5.32;3.70;;;512.60;2380.80;;;;;;5079062;28;20047;-76
2022/09/12 08:06:24;;;;;;;4.45;3.55;;;512.70;2380.80;;;;;;5092963;28;20615;-77
2022/09/12 08:08:51;;;;;;;6.57;3.50;;;512.70;2380.80;;;;;;5092675;28;20057;-77
2022/09/12 08:11:19;;;;;;;5.13;3.67;;;512.80;2380.80;;;;;;5094356;28;20048;-77
2022/09/12 08:13:45;;;;;;;7.80;3.88;;;512.90;2380.80;;;;;;5092664;28;20035;-78
2022/09/12 08:16:13;;;;;;;7.53;3.10;;;512.90;2380.80;;;;;;5094013;28;20028;-79
2022/09/12 08:18:39;;;;;;;4.82;3.20;;;537.60;2406.40;;;;;;5093746;28;20051;-76
2022/09/12 08:21:17;;;;;;;7.72;3.78;;;537.70;2406.40;;;;;;5094041;28;20020;-78
2022/09/12 08:23:43;;;;;;;15.57;3.75;;;537.80;2406.40;;;;;;5092514;28;20366;-77
2022/09/12 08:26:13;;;;;;;4.55;3.53;;;537.70;2406.40;;;;;;5092449;28;20470;-80
2022/09/12 08:28:39;;;;;;;6.38;3.45;;;537.90;2406.40;;;;;;5066249;28;20111;-82
2022/09/12 08:31:11;;;;;;;4.40;2.90;;;537.90;2406.40;;;;;;5092600;28;20035;-81
2022/09/12 08:33:37;;;;;;;4.07;2.80;;;537.90;2406.40;;;;;;5084304;28;20067;-84
2022/09/12 08:36:15;;;;;;;15.35;3.30;;;537.90;2406.40;;;;;;5087642;28;20047;-81
2022/09/12 08:38:43;;;;;;;4.68;2.75;;;538.00;2406.40;;;;;;5093213;28;20127;-83
2022/09/12 08:41:21;;;;;;;16.42;4.18;;;538.20;2406.40;;;;;;5093144;28;20032;-82
2022/09/12 08:44:10;;;;;;;6.65;3.33;;;538.20;2406.40;;;;;;5094355;28;20024;-82
2022/09/12 08:47:06;;;;;;;5.65;3.20;;;538.40;2406.40;;;;;;4995699;28;20120;-81
2022/09/12 08:49:33;;;;;;;4.68;3.20;;;538.40;2406.40;;;;;;5008634;28;20038;-81
2022/09/12 08:52:05;;;;;;;5.28;2.83;;;538.50;2406.40;;;;;;5000947;28;20064;-82
2022/09/12 08:54:32;;;;;;;8.18;3.45;;;538.50;2406.40;;;;;;4997874;28;20029;-80
2022/09/12 08:57:02;;;;;;;6.55;2.85;;;563.30;2432.00;;;;;;5001826;28;20124;-81
2022/09/12 08:59:44;;;;;;;4.70;3.10;;;563.40;2432.00;;;;;;4973647;28;20029;-80
2022/09/12 09:02:40;;;;;;;6.13;3.17;;;563.40;2432.00;;;;;;4985060;28;20036;-81
2022/09/12 09:05:34;;;;;;;3.85;2.88;;;563.60;2432.00;;;;;;5011574;28;20045;-78
2022/09/12 09:08:26;;;;;;;5.63;2.70;;;563.70;2432.00;;;;;;5011482;28;20034;-79
2022/09/12 09:11:01;;;;;;;4.82;2.55;;;563.60;2380.80;;;;;;5011725;28;20113;-81
2022/09/12 09:16:42;;;;;;;5.10;3.20;;;563.70;2432.00;;;;;;4992542;28;20065;-84
2022/09/12 09:19:25;;;;;;;4.07;2.58;;;563.70;2380.80;;;;;;4983237;28;20173;-90
2022/09/12 09:22:00;;;;;;;5.18;2.70;;;564.00;2355.20;;;;;;5001680;28;20046;-80
2022/09/12 09:24:52;;;;;;;7.63;2.67;;;564.10;2355.20;;;;;;5072455;28;20045;-82
2022/09/12 09:27:23;;;;;;;6.40;2.88;;;564.00;2304.00;;;;;;5086477;28;20028;-83
2022/09/12 09:29:54;;;;;;;4.97;2.63;;;564.10;2252.80;;;;;;5092068;28;20031;-82
2022/09/12 09:32:37;;;;;;;7.18;3.17;;;588.80;2252.80;;;;;;5077294;28;20153;-82
2022/09/12 09:35:17;;;;;;;9.35;3.33;;;589.00;2278.40;;;;;;5093375;28;20025;-81
2022/09/12 09:38:11;;;;;;;7.50;2.80;;;589.20;2304.00;;;;;;5091898;28;20389;-81
2022/09/12 09:40:50;;;;;;;8.57;3.53;;;589.50;2176.00;;;;;;5092743;28;20020;-81
2022/09/12 09:43:27;;;;;;;6.20;3.55;;;589.50;2252.80;;;;;;5091972;28;20077;-80
2022/09/12 09:45:55;;;;;;;10.98;4.20;;;589.60;2201.60;;;;;;5091601;28;20491;-82
2022/09/12 09:48:29;;;;;;;6.72;3.20;;;614.40;2124.80;;;;;;5090903;28;20048;-80
2022/09/12 09:50:58;;;;;;;5.65;2.85;;;589.60;2099.20;;;;;;5058438;28;20032;-80
2022/09/12 09:53:53;;;;;;;5.68;3.47;;;589.70;2099.20;;;;;;5085147;28;20016;-80
2022/09/12 09:56:34;;;;;;;4.85;3.13;;;614.50;2099.20;;;;;;5070248;28;20025;-79
2022/09/12 09:59:14;;;;;;;4.72;2.60;;;614.80;1996.80;;;;;;5088179;28;20040;-80
2022/09/12 10:02:02;;;;;;;4.88;2.65;;;589.70;2073.60;;;;;;5070729;28;20025;-80
2022/09/12 10:04:33;;;;;;;11.73;2.88;;;614.40;1971.20;;;;;;5082499;28;20024;-81
2022/09/12 10:07:03;;;;;;;3.88;2.70;;;614.50;1971.20;;;;;;5079748;28;20009;-79
2022/09/12 10:09:32;;;;;;;4.05;2.70;;;614.90;1945.60;;;;;;5072689;28;20060;-80
2022/09/12 10:12:00;;;;;;;9.80;2.95;;;615.10;1920.00;;;;;;5069644;28;20040;-81
2022/09/12 10:14:39;;;;;;;4.57;2.47;;;640.00;1945.60;;;;;;5073140;28;20451;-80
2022/09/12 10:17:27;;;;;;;5.35;2.70;;;640.30;1868.80;;;;;;5068695;28;20494;-81
2022/09/12 10:19:54;;;;;;;5.35;2.95;;;640.60;1817.60;;;;;;5088599;28;20032;-78
2022/09/12 10:22:26;;;;;;;4.18;2.70;;;640.60;1766.40;;;;;;5091167;28;20028;-80
2022/09/12 10:24:58;;;;;;;5.40;3.10;;;640.90;1715.20;;;;;;5091122;28;20024;-81
2022/09/12 10:27:32;;;;;;;4.47;2.70;;;640.60;1689.60;;;;;;5096549;28;20024;-83
2022/09/12 10:30:13;;;;;;;6.72;3.28;;;640.10;1766.40;;;;;;5092014;28;20111;-78
2022/09/12 10:32:42;;;;;;;6.45;3.40;;;640.50;1766.40;;;;;;5074755;28;20029;-82
2022/09/12 10:35:21;;;;;;;4.38;2.83;;;640.60;1715.20;;;;;;5087918;28;20034;-83
2022/09/12 10:38:04;;;;;;;4.47;2.92;;;640.90;1715.20;;;;;;5086887;28;20028;-82
2022/09/12 10:40:42;;;;;;;5.25;2.88;;;665.70;1689.60;;;;;;5089539;28;20052;-82
2022/09/12 10:43:26;;;;;;;5.43;2.72;;;665.70;1638.40;;;;;;5077177;28;20025;-82
2022/09/12 10:45:57;;;;;;;6.82;3.78;;;666.10;1638.40;;;;;;5095621;28;20089;-83
2022/09/12 10:48:30;;;;;;;4.53;3.05;;;666.10;1612.80;;;;;;5085656;28;20436;-84
2022/09/12 10:50:57;;;;;;;5.90;3.47;;;666.40;1561.60;;;;;;5072658;28;20478;-85
2022/09/12 10:53:31;;;;;;;4.57;2.95;;;665.80;1638.40;;;;;;5095360;28;20056;-84
2022/09/12 10:56:13;;;;;;;4.65;2.72;;;666.30;1536.00;;;;;;5096265;28;20056;-81
2022/09/12 10:59:03;;;;;;;3.65;2.38;;;666.40;1587.20;;;;;;5094976;28;20066;-84
2022/09/12 11:01:35;;;;;;;6.40;2.47;;;666.00;1587.20;;;;;;5085632;28;20052;-84
2022/09/12 11:04:12;;;;;;;3.88;2.45;;;666.30;1536.00;;;;;;5107239;28;20115;-82
2022/09/12 11:07:04;;;;;;;8.07;3.08;;;666.40;1510.40;;;;;;5107106;28;20016;-79
2022/09/12 11:09:45;;;;;;;6.10;2.60;;;691.20;1536.00;;;;;;5094968;28;20042;-81
2022/09/12 11:12:40;;;;;;;6.97;3.00;;;666.00;1510.40;;;;;;5094431;28;20016;-83
2022/09/12 11:15:27;;;;;;;4.78;2.42;;;666.50;1536.00;;;;;;5094804;28;20024;-80
2022/09/12 11:18:19;;;;;;;5.63;2.80;;;666.20;1484.80;;;;;;5082200;28;20079;-86
2022/09/12 11:20:51;;;;;;;4.18;2.42;;;640.90;1536.00;;;;;;5091296;28;20089;-80
2022/09/12 11:23:46;;;;;;;4.25;2.53;;;640.40;1561.60;;;;;;5095631;28;20092;-82
2022/09/12 11:26:40;;;;;;;3.90;2.58;;;615.30;1612.80;;;;;;5094389;28;20119;-79
2022/09/12 11:29:24;;;;;;;4.13;2.45;;;615.20;1612.80;;;;;;5095566;28;20047;-82
2022/09/12 11:32:18;;;;;;;3.80;2.30;;;615.20;1638.40;;;;;;5080013;28;20474;-80
2022/09/12 11:35:04;;;;;;;4.40;2.50;;;640.50;1612.80;;;;;;5095070;28;20016;-78
2022/09/12 11:37:48;;;;;;;;;;;640.70;1612.80;;;;;;5094979;28;20081;-82
2022/09/12 11:40:26;;;;;;;4.50;2.10;;;665.70;1587.20;;;;;;5095231;28;19911;-84
2022/09/12 11:42:56;;;;;;;3.95;1.80;;;640.70;1740.80;;;;;;5095571;28;20016;-81
2022/09/12 11:45:28;;;;;;;5.22;2.45;;;665.70;1484.80;;;;;;5094002;28;20027;-79
2022/09/12 11:47:59;;;;;;;9.32;2.30;;;665.60;1459.20;;;;;;5094026;28;20482;-79
2022/09/12 11:50:30;;;;;;;6.50;2.05;;;666.00;1484.80;;;;;;5094891;28;20028;-81
2022/09/12 11:53:21;;;;;;;6.20;2.42;;;666.20;1459.20;;;;;;5094657;28;20031;-79
2022/09/12 11:56:01;;;;;;;5.93;2.65;;;691.20;1433.60;;;;;;5093585;28;20093;-81
2022/09/12 11:58:28;;;;;;;3.13;2.25;;;666.20;1408.00;;;;;;5093603;28;20032;-82
2022/09/12 12:01:13;;;;;;;5.22;2.83;;;665.60;1433.60;;;;;;5093557;28;20072;-82
2022/09/12 12:03:45;;;;;;;5.50;2.67;;;666.20;1408.00;;;;;;5094279;28;20028;-81
2022/09/12 12:06:20;;;;;;;3.65;2.00;;;666.50;1382.40;;;;;;5093543;28;20131;-80
2022/09/12 12:08:48;;;;;;;3.75;2.40;;;665.90;1408.00;;;;;;5093278;28;20036;-79
2022/09/12 12:11:28;;;;;;;4.80;2.80;;;640.70;1408.00;;;;;;5092972;28;20113;-83
2022/09/12 12:14:04;;;;;;;3.85;2.67;;;665.60;1459.20;;;;;;5093487;28;20028;-80
2022/09/12 12:16:33;;;;;;;5.68;2.92;;;640.50;1433.60;;;;;;5093219;28;20069;-82
2022/09/12 12:19:30;;;;;;;6.90;4.43;;;665.90;1459.20;;;;;;5093590;28;20080;-81
2022/09/12 12:22:06;;;;;;;6.57;4.63;;;665.60;1484.80;;;;;;5086327;28;20363;-81
2022/09/12 12:24:33;;;;;;;8.05;3.55;;;665.80;1459.20;;;;;;5088830;28;20027;-82
2022/09/12 12:27:21;;;;;;;3.35;2.20;;;666.20;1433.60;;;;;;5094153;28;20023;-81
2022/09/12 12:29:47;;;;;;;6.32;2.95;;;666.30;1433.60;;;;;;5093404;28;20028;-82
2022/09/12 12:32:16;;;;;;;5.05;3.65;;;666.30;1433.60;;;;;;5094205;28;20027;-82
2022/09/12 12:34:44;;;;;;;5.55;2.58;;;665.80;1459.20;;;;;;5093260;28;20020;-82
2022/09/12 12:37:21;;;;;;;5.90;2.92;;;665.80;1433.60;;;;;;5092758;28;20028;-83
2022/09/12 12:39:48;;;;;;;5.97;2.78;;;665.70;1484.80;;;;;;5092363;28;20055;-79
2022/09/12 12:42:32;;;;;;;5.72;2.80;;;666.20;1459.20;;;;;;5094281;28;20526;-81
2022/09/12 12:45:07;;;;;;;4.25;2.05;;;691.20;1433.60;;;;;;5092321;28;20051;-80
2022/09/12 12:47:39;;;;;;;4.80;2.40;;;691.50;1382.40;;;;;;5084372;28;20116;-80
2022/09/12 12:50:27;;;;;;;3.30;2.10;;;691.80;1356.80;;;;;;5086358;28;20055;-80